Terminal Aerodrome Forecast
Issued by NWS Caribou, ME

Home | Current Version | Previous Version | Text Only | Print | Product List | Glossary On
Versions: 1 2 3 4 5 6 7 8 9 10 11 12 13 14 15 16 17 18 19 20
000
FTUS41 KCAR 012300
TAFBGR
TAF
KBGR 012335Z 0200/0224 18006KT P6SM BKN250
     FM020600 VRB03KT 5SM BR SCT005
     FM020800 VRB03KT 1SM BR OVC004
     FM021000 VRB03KT 1/2SM FG OVC002
     FM021200 20006KT 4SM BR OVC005
     FM021400 20008KT P6SM BKN050=

USA.gov is the U.S. government's official web portal to all federal, state and local government web resources and services.